Time;durP1;ratioP1;P1;durP2;ratioP2;P2;SDS_P1;SDS_P2;PMS_P1;PMS_P2;Temp;Humidity;BMP_temperature;BMP_pressure;BME280_temperature;BME280_humidity;BME280_pressure;Samples;Min_cycle;Max_cycle;Signal;HPM_P1;HPM_P2
2022/05/29 00:01:50;;;;;;;14.27;8.82;;;;;;;15.65;100.00;63617.69;5045831;28;20433;-80
2022/05/29 00:04:20;;;;;;;16.33;11.45;;;;;;;15.61;100.00;63611.47;5044542;28;20596;-80
2022/05/29 00:06:49;;;;;;;19.33;11.55;;;;;;;15.73;100.00;63623.41;5043862;28;20213;-80
2022/05/29 00:09:28;;;;;;;21.77;13.10;;;;;;;15.78;100.00;63634.28;5044302;28;20206;-80
2022/05/29 00:11:55;;;;;;;26.67;13.43;;;;;;;15.87;100.00;63643.13;5044963;28;20521;-79
2022/05/29 00:14:22;;;;;;;20.67;13.02;;;;;;;16.02;100.00;63651.53;5041536;28;20221;-79
2022/05/29 00:16:49;;;;;;;20.73;11.38;;;;;;;15.73;100.00;63623.41;5038932;28;20580;-77
2022/05/29 00:19:17;;;;;;;12.98;9.70;;;;;;;15.71;100.00;63621.84;5041818;28;20193;-78
2022/05/29 00:21:44;;;;;;;14.57;9.10;;;;;;;15.75;100.00;63625.50;5024730;28;20198;-78
2022/05/29 00:24:11;;;;;;;15.02;8.32;;;;;;;15.83;100.00;63631.78;5032110;28;20194;-76
2022/05/29 00:26:38;;;;;;;15.52;7.10;;;;;;;15.96;100.00;63649.91;5029924;28;20255;-78
2022/05/29 00:29:05;;;;;;;13.48;6.68;;;;;;;15.86;100.00;63636.91;5040426;28;20272;-78
2022/05/29 00:31:33;;;;;;;10.98;6.57;;;;;;;15.90;100.00;63646.75;5043713;28;20228;-77
2022/05/29 00:34:00;;;;;;;12.20;7.07;;;;;;;15.97;100.00;63648.38;5036791;28;20199;-78
2022/05/29 00:36:33;;;;;;;12.52;6.22;;;;;;;15.98;100.00;63646.84;5025492;28;20240;-80
2022/05/29 00:39:01;;;;;;;8.48;6.28;;;;;;;15.75;100.00;63628.06;5041896;28;20526;-78
2022/05/29 00:41:31;;;;;;;12.95;6.43;;;;;;;15.70;100.00;63620.81;5037607;28;20238;-77
2022/05/29 00:44:14;;;;;;;9.90;5.55;;;;;;;15.72;100.00;63625.47;5028456;28;20206;-77
2022/05/29 00:46:45;;;;;;;11.15;5.90;;;;;;;15.49;100.00;63604.13;5048557;28;20208;-77
2022/05/29 00:49:14;;;;;;;9.48;5.95;;;;;;;15.45;100.00;63597.41;5043682;28;20212;-77
2022/05/29 00:51:47;;;;;;;16.20;6.90;;;;;;;15.49;100.00;63601.56;5029628;28;20202;-77
2022/05/29 00:54:16;;;;;;;13.52;5.85;;;;;;;15.53;100.00;63600.56;5030827;28;20205;-77
2022/05/29 00:56:43;;;;;;;8.93;4.75;;;;;;;15.35;100.00;63586.47;5036932;28;20289;-76
2022/05/29 00:59:15;;;;;;;7.20;5.80;;;;;;;15.21;100.00;63572.44;5034728;28;20502;-76
2022/05/29 01:01:43;;;;;;;13.63;6.10;;;;;;;15.29;100.00;63577.66;5043711;28;20202;-77
2022/05/29 01:04:11;;;;;;;5.65;5.05;;;;;;;15.32;100.00;63583.34;5040206;28;20253;-77
2022/05/29 01:06:39;;;;;;;11.93;5.10;;;;;;;15.27;100.00;63576.09;5038355;28;20236;-78
2022/05/29 01:09:09;;;;;;;8.35;5.07;;;;;;;15.04;100.00;63557.34;5042166;28;20218;-77
2022/05/29 01:11:48;;;;;;;7.72;4.53;;;;;;;15.12;100.00;63557.94;5044550;28;20201;-77
2022/05/29 01:14:24;;;;;;;8.57;4.35;;;;;;;15.16;100.00;63569.28;5047092;28;20205;-78
2022/05/29 01:17:11;;;;;;;5.22;3.47;;;;;;;15.15;100.00;63563.13;5047495;28;20233;-78
2022/05/29 01:19:53;;;;;;;7.68;3.50;;;;;;;15.21;100.00;63569.34;5046262;28;20218;-78
2022/05/29 01:22:36;;;;;;;7.20;3.35;;;;;;;15.25;100.00;63576.06;5060864;28;20217;-78
2022/05/29 01:25:33;;;;;;;8.70;4.15;;;;;;;15.25;100.00;63565.81;5042963;28;20310;-78
2022/05/29 01:28:07;;;;;;;7.38;3.75;;;;;;;15.14;100.00;63559.50;5043570;28;20440;-79
2022/05/29 01:30:39;;;;;;;8.30;3.35;;;;;;;15.10;100.00;63552.78;5044775;28;20223;-79
2022/05/29 01:33:18;;;;;;;3.50;3.20;;;;;;;14.98;100.00;63546.47;5041544;28;20202;-79
2022/05/29 01:35:50;;;;;;;8.20;3.10;;;;;;;14.99;100.00;63547.53;5041301;28;20285;-79
2022/05/29 01:38:22;;;;;;;7.15;2.92;;;;;;;14.88;100.00;63541.22;5041664;28;20213;-78
2022/05/29 01:40:53;;;;;;;4.32;2.70;;;;;;;14.97;100.00;63542.88;5037613;28;20234;-79
2022/05/29 01:43:27;;;;;;;10.65;3.00;;;;;;;14.89;100.00;63536.63;5027759;28;20229;-78
2022/05/29 01:45:58;;;;;;;5.72;3.65;;;;;;;14.86;100.00;63539.16;5039790;28;20222;-79
2022/05/29 01:48:49;;;;;;;8.23;3.03;;;;;;;14.82;100.00;63532.41;5040176;28;20217;-79
2022/05/29 01:51:19;;;;;;;8.80;2.55;;;;;;;14.80;100.00;63529.84;5036235;28;20222;-78
2022/05/29 01:53:53;;;;;;;3.40;2.55;;;;;;;14.81;100.00;63528.81;5036326;28;20222;-78
2022/05/29 01:56:25;;;;;;;6.68;2.80;;;;;;;14.81;100.00;63531.38;5035900;28;20234;-79
2022/05/29 01:58:56;;;;;;;2.92;2.67;;;;;;;14.81;100.00;63530.84;5040788;28;20197;-78
2022/05/29 02:01:28;;;;;;;4.53;2.42;;;;;;;14.86;100.00;63536.06;5064235;28;20428;-78
2022/05/29 02:03:59;;;;;;;4.47;2.67;;;;;;;14.87;100.00;63534.53;5034533;28;20213;-79
2022/05/29 02:07:47;;;;;;;2.80;2.60;;;;;;;14.93;100.00;63543.84;5041144;28;20197;-78
2022/05/29 02:09:21;;;;;;;8.60;2.85;;;;;;;14.98;100.00;63543.41;5034007;28;20236;-79
2022/05/29 02:11:50;;;;;;;4.07;2.70;;;;;;;14.97;100.00;63539.78;5042850;28;20511;-79
2022/05/29 02:14:23;;;;;;;2.40;2.17;;;;;;;15.04;100.00;63552.72;5040500;28;20230;-78
2022/05/29 02:16:54;;;;;;;8.48;2.63;;;;;;;15.10;100.00;63555.84;5050443;28;20226;-77
2022/05/29 02:19:25;;;;;;;6.60;2.58;;;;;;;15.12;100.00;63560.50;5048037;28;20226;-78
2022/05/29 02:21:58;;;;;;;4.95;2.42;;;;;;;15.20;100.00;63565.75;5036169;28;20211;-79
2022/05/29 02:24:30;;;;;;;6.95;2.45;;;;;;;15.13;100.00;63563.59;5046013;28;20274;-78
2022/05/29 02:27:03;;;;;;;3.70;2.67;;;;;;;15.19;100.00;63567.25;5035288;28;20190;-76
2022/05/29 02:29:31;;;;;;;10.40;3.05;;;;;;;15.32;100.00;63578.22;5039736;28;20554;-78
2022/05/29 02:32:07;;;;;;;3.25;2.58;;;;;;;15.34;100.00;63583.38;5043590;28;20240;-77
2022/05/29 02:34:42;;;;;;;4.25;2.15;;;;;;;15.40;100.00;63589.63;5045794;28;20225;-77
2022/05/29 02:37:19;;;;;;;5.20;2.35;;;;;;;15.38;100.00;63584.97;5038563;28;20345;-78
2022/05/29 02:39:56;;;;;;;4.40;2.25;;;;;;;15.41;100.00;63592.72;5043898;28;20236;-77
2022/05/29 02:42:33;;;;;;;7.65;2.30;;;;;;;15.38;100.00;63589.56;5045140;28;20201;-76
2022/05/29 02:45:08;;;;;;;4.03;2.33;;;;;;;15.37;100.00;63583.94;5044393;28;20287;-77
2022/05/29 02:47:45;;;;;;;6.15;2.25;;;;;;;15.43;100.00;63590.19;5041580;28;20285;-77
2022/05/29 02:50:25;;;;;;;9.07;2.55;;;;;;;15.47;100.00;63598.94;5043796;28;20218;-77
2022/05/29 02:52:53;;;;;;;5.93;2.28;;;;;;;15.51;100.00;63600.56;5042773;28;20197;-76
2022/05/29 02:55:20;;;;;;;5.95;1.73;;;;;;;15.49;100.00;63598.47;5031108;28;20226;-76
2022/05/29 02:57:49;;;;;;;5.55;2.33;;;;;;;15.58;100.00;63605.75;5036115;28;20522;-77
2022/05/29 03:00:19;;;;;;;6.43;2.08;;;;;;;15.53;100.00;63607.75;5024392;28;20219;-76
2022/05/29 03:02:59;;;;;;;5.93;2.42;;;;;;;15.53;100.00;63602.63;5023786;28;20245;-76
2022/05/29 03:05:32;;;;;;;6.18;1.67;;;;;;;15.55;100.00;63605.22;5041315;28;20222;-77
2022/05/29 03:08:12;;;;;;;5.15;2.17;;;;;;;15.50;100.00;63599.50;5037964;28;20198;-75
2022/05/29 03:10:41;;;;;;;10.13;3.05;;;;;;;15.57;100.00;63609.34;5043123;28;20221;-76
2022/05/29 03:13:15;;;;;;;4.72;2.83;;;;;;;15.63;100.00;63610.47;5042729;28;20499;-76
2022/05/29 03:15:52;;;;;;;4.45;2.10;;;;;;;15.66;100.00;63623.84;5032495;28;20230;-76
2022/05/29 03:18:32;;;;;;;3.38;2.05;;;;;;;15.66;100.00;63613.56;5023334;28;20198;-77
2022/05/29 03:21:08;;;;;;;9.20;2.17;;;;;;;15.66;100.00;63616.66;5023675;28;20214;-76
2022/05/29 03:23:46;;;;;;;3.95;2.20;;;;;;;15.64;100.00;63614.06;5030465;28;20502;-76
2022/05/29 03:26:20;;;;;;;8.57;2.63;;;;;;;15.65;100.00;63615.59;5039730;28;20218;-77
2022/05/29 03:28:54;;;;;;;4.50;1.88;;;;;;;15.74;100.00;63627.00;5043485;28;20283;-76
2022/05/29 03:31:26;;;;;;;2.70;1.48;;;;;;;15.75;100.00;63628.06;5041250;28;20588;-76
2022/05/29 03:33:53;;;;;;;3.60;2.38;;;;;;;15.86;100.00;63634.34;5034030;28;20210;-77
2022/05/29 03:36:20;;;;;;;4.38;1.88;;;;;;;15.93;100.00;63641.63;5043057;28;20237;-75
2022/05/29 03:38:47;;;;;;;5.70;2.15;;;;;;;15.97;100.00;63648.91;5025197;28;20199;-75
2022/05/29 03:41:26;;;;;;;7.43;1.88;;;;;;;16.13;100.00;63665.00;5035198;28;20237;-76
2022/05/29 03:43:53;;;;;;;2.40;1.92;;;;;;;16.36;100.00;63691.50;5029193;28;20220;-75
2022/05/29 03:46:20;;;;;;;5.00;2.97;;;;;;;16.35;100.00;63690.47;5000631;28;1144533;-75
2022/05/29 03:48:48;;;;;;;5.03;1.92;;;;;;;16.44;100.00;63702.41;5044538;28;20358;-74
2022/05/29 03:51:15;;;;;;;7.00;2.22;;;;;;;16.44;100.00;63699.31;5040681;28;20221;-76
2022/05/29 03:53:41;;;;;;;10.05;2.03;;;;;;;16.50;100.00;63706.09;5042653;28;20212;-75
2022/05/29 03:56:08;;;;;;;2.72;1.88;;;;;;;16.56;100.00;63709.25;5031883;28;20241;-75
2022/05/29 03:58:35;;;;;;;4.15;1.67;;;;;;;16.58;100.00;63709.28;5041371;28;20556;-76
2022/05/29 04:01:02;;;;;;;7.05;1.55;;;;;;;16.61;100.00;63714.97;5041176;28;20214;-76
2022/05/29 04:03:29;;;;;;;6.00;3.05;;;;;;;16.66;100.00;63719.63;5042154;28;20213;-77
2022/05/29 04:05:57;;;;;;;7.05;3.42;;;;;;;16.68;100.00;63726.88;5030235;28;20247;-76
2022/05/29 04:13:53;;;;;;;4.50;1.85;;;;;;;16.98;100.00;63750.88;5032223;28;20279;-76
2022/05/29 04:16:20;;;;;;;4.05;1.85;;;;;;;17.05;100.00;63758.19;5029815;28;20225;-76
2022/05/29 04:18:47;;;;;;;5.70;1.67;;;;;;;17.18;100.00;63771.19;5033230;28;20225;-75
2022/05/29 04:21:15;;;;;;;6.82;1.98;;;;;;;17.10;98.14;63765.94;5041713;28;20236;-76
2022/05/29 04:23:42;;;;;;;7.97;1.90;;;;;;;17.64;96.11;63818.56;5041941;28;20205;-75
2022/05/29 04:26:09;;;;;;;1.92;1.83;;;;;;;17.72;97.61;63826.91;5042096;28;20232;-77
2022/05/29 04:28:36;;;;;;;10.15;2.03;;;;;;;17.83;97.11;63838.34;5041081;28;20386;-77
2022/05/29 04:31:02;;;;;;;4.85;1.70;;;;;;;17.93;94.45;63854.44;5037906;28;20568;-77
2022/05/29 04:33:28;;;;;;;8.50;1.65;;;;;;;18.07;93.87;63861.31;5041954;28;20205;-75
2022/05/29 04:35:56;;;;;;;4.97;3.08;;;;;;;18.21;93.12;63883.09;5042909;28;20235;-77
2022/05/29 04:38:27;;;;;;;1.98;1.70;;;;;;;18.35;89.55;63895.63;5031422;28;20520;-77
2022/05/29 04:40:55;;;;;;;6.72;1.77;;;;;;;18.59;87.77;63925.28;5042758;28;20248;-76
2022/05/29 04:43:22;;;;;;;8.02;1.98;;;;;;;18.78;85.19;63936.84;5041459;28;20529;-76
2022/05/29 04:45:54;;;;;;;2.08;1.52;;;;;;;19.06;84.05;63968.59;5042793;28;20240;-75
2022/05/29 04:48:21;;;;;;;4.55;1.90;;;;;;;19.19;83.47;63985.25;5042574;28;20224;-76
2022/05/29 04:50:48;;;;;;;3.78;2.22;;;;;;;19.47;88.91;64011.38;5042677;28;20236;-75
2022/05/29 04:53:14;;;;;;;2.83;1.35;;;;;;;19.69;89.36;64033.81;5027413;28;20391;-77
2022/05/29 04:55:43;;;;;;;2.15;1.73;;;;;;;19.93;92.12;64059.34;5042784;28;20235;-76
2022/05/29 04:58:10;;;;;;;10.60;2.08;;;;;;;19.96;87.24;64064.56;5032257;28;20198;-77
2022/05/29 05:00:40;;;;;;;4.47;1.75;;;;;;;19.92;86.86;64063.47;5030791;28;20244;-78
2022/05/29 05:03:07;;;;;;;3.20;1.85;;;;;;;20.04;84.69;64076.00;5035090;28;20216;-77
2022/05/29 05:05:34;;;;;;;3.97;1.65;;;;;;;20.02;78.53;64073.41;5041677;28;20225;-76
2022/05/29 05:08:01;;;;;;;2.58;1.58;;;;;;;20.34;74.39;64104.22;5040133;28;20205;-77
2022/05/29 05:10:28;;;;;;;4.32;1.77;;;;;;;20.44;77.01;64114.66;5028007;28;20218;-75
2022/05/29 05:12:56;;;;;;;7.03;1.77;;;;;;;20.60;78.45;64129.28;5032353;28;20206;-76
2022/05/29 05:15:23;;;;;;;5.97;1.83;;;;;;;20.80;79.63;64146.53;5026851;28;20218;-76
2022/05/29 05:17:50;;;;;;;4.60;1.58;;;;;;;20.54;81.74;64119.91;5043425;28;20332;-77
2022/05/29 05:20:17;;;;;;;6.43;2.13;;;;;;;20.53;86.97;64119.41;5041662;28;20252;-76
2022/05/29 05:22:44;;;;;;;6.55;3.22;;;;;;;20.16;98.54;64083.38;5045691;28;20197;-76
2022/05/29 05:25:11;;;;;;;4.53;3.35;;;;;;;20.03;98.85;64074.97;5044647;28;20217;-76
2022/05/29 05:27:39;;;;;;;4.35;3.00;;;;;;;20.00;99.64;64068.72;5041671;28;20223;-77
2022/05/29 05:30:09;;;;;;;7.25;3.30;;;;;;;20.06;100.00;64078.09;5051544;28;20220;-77
2022/05/29 05:32:35;;;;;;;5.22;3.30;;;;;;;20.11;100.00;64075.56;5047239;28;20201;-77
2022/05/29 05:35:06;;;;;;;6.45;3.60;;;;;;;20.09;100.00;64075.53;5043358;28;20218;-78
2022/05/29 05:37:34;;;;;;;6.85;3.80;;;;;;;20.12;100.00;64076.59;5035254;28;20293;-76
2022/05/29 05:40:02;;;;;;;9.13;3.85;;;;;;;20.27;100.00;64091.75;5033788;28;20220;-77
2022/05/29 05:42:29;;;;;;;8.85;3.90;;;;;;;20.39;100.00;64109.44;5047602;28;20197;-77
2022/05/29 05:44:56;;;;;;;5.80;3.15;;;;;;;20.36;98.57;64106.31;5046499;28;20222;-77
2022/05/29 05:47:25;;;;;;;5.13;3.88;;;;;;;20.47;98.50;64120.38;5042550;28;20210;-75
2022/05/29 05:49:52;;;;;;;12.35;4.25;;;;;;;20.62;96.94;64130.88;5045272;28;20229;-75
2022/05/29 05:52:20;;;;;;;4.10;2.10;;;;;;;20.71;93.10;64144.91;5042677;28;20289;-75
2022/05/29 05:54:47;;;;;;;6.78;2.20;;;;;;;20.95;94.82;64167.91;5033442;28;20447;-75
2022/05/29 05:57:17;;;;;;;3.17;2.00;;;;;;;21.05;92.33;64175.78;5039425;28;20244;-75
2022/05/29 05:59:44;;;;;;;6.78;2.60;;;;;;;21.10;92.37;64180.47;5025953;28;20218;-76
2022/05/29 06:02:11;;;;;;;4.68;2.90;;;;;;;21.14;92.70;64189.84;5031328;28;20193;-77
2022/05/29 06:04:41;;;;;;;6.10;2.92;;;;;;;21.18;96.50;64186.75;5044499;28;20221;-76
2022/05/29 06:07:09;;;;;;;4.22;2.90;;;;;;;21.10;97.26;64181.00;5046305;28;20491;-77
2022/05/29 06:09:37;;;;;;;4.13;3.20;;;;;;;21.22;98.97;64195.59;5046199;28;20221;-77
2022/05/29 06:12:07;;;;;;;3.70;2.80;;;;;;;21.12;92.62;64187.75;5048208;28;20227;-77
2022/05/29 06:14:34;;;;;;;12.32;2.47;;;;;;;21.28;89.13;64199.25;5045349;28;20224;-76
2022/05/29 06:17:01;;;;;;;7.78;2.80;;;;;;;21.40;92.11;64209.19;5039891;28;20237;-75
2022/05/29 06:19:28;;;;;;;3.22;2.50;;;;;;;21.44;86.44;64219.09;5046737;28;20214;-75
2022/05/29 06:21:56;;;;;;;3.38;2.35;;;;;;;21.57;88.18;64227.50;5045723;28;20209;-75
2022/05/29 06:24:23;;;;;;;7.15;2.28;;;;;;;21.75;89.12;64248.91;5048910;28;20240;-76
2022/05/29 06:26:50;;;;;;;8.70;2.40;;;;;;;21.71;83.20;64242.13;5054099;28;20216;-76
2022/05/29 06:29:19;;;;;;;3.47;2.97;;;;;;;21.78;83.15;64252.03;5055379;28;20244;-75
2022/05/29 06:31:46;;;;;;;8.18;2.72;;;;;;;21.74;83.23;64249.91;5045676;28;20260;-76
2022/05/29 06:34:13;;;;;;;5.68;2.13;;;;;;;21.82;79.60;64257.75;5045905;28;20434;-76
2022/05/29 06:36:41;;;;;;;5.20;2.00;;;;;;;21.94;76.27;64272.91;5045732;28;20240;-77
2022/05/29 06:39:09;;;;;;;5.05;2.60;;;;;;;22.06;76.92;64280.78;5040667;28;20224;-75
2022/05/29 06:41:39;;;;;;;4.03;1.88;;;;;;;22.12;73.05;64284.47;5048069;28;20208;-76
2022/05/29 06:44:06;;;;;;;4.53;1.90;;;;;;;22.21;72.73;64296.44;5049160;28;20491;-75
2022/05/29 06:46:33;;;;;;;4.78;1.77;;;;;;;22.23;70.90;64303.19;5050628;28;20193;-76
2022/05/29 06:49:00;;;;;;;4.95;2.30;;;;;;;22.19;66.13;64296.97;5038150;28;20263;-77
2022/05/29 06:51:27;;;;;;;5.72;3.08;;;;;;;22.25;68.92;64297.50;5045128;28;20227;-76
2022/05/29 06:53:56;;;;;;;6.60;2.03;;;;;;;22.43;69.20;64324.13;5039197;28;20202;-76
2022/05/29 06:56:25;;;;;;;2.75;1.95;;;;;;;22.41;68.71;64325.16;5045126;28;20198;-77
2022/05/29 06:58:53;;;;;;;4.60;2.42;;;;;;;22.53;68.92;64329.91;5042509;28;20204;-77
2022/05/29 07:07:02;;;;;;;5.93;2.28;;;;;;;22.78;70.99;64358.66;5035920;28;20228;-79
2022/05/29 07:09:31;;;;;;;5.18;1.70;;;;;;;22.84;68.70;64359.22;5034349;28;20217;-80
2022/05/29 07:12:06;;;;;;;3.22;1.92;;;;;;;22.85;70.54;64357.66;5033415;28;20194;-79
2022/05/29 07:14:35;;;;;;;6.68;2.45;;;;;;;22.79;67.57;64359.19;5034319;28;20225;-79
2022/05/29 07:17:02;;;;;;;7.63;2.85;;;;;;;22.67;68.32;64341.97;5033051;28;20296;-79
2022/05/29 07:19:29;;;;;;;5.28;1.98;;;;;;;22.84;70.38;64361.81;5035662;28;20225;-76
2022/05/29 07:21:58;;;;;;;5.68;2.20;;;;;;;22.68;70.57;64347.69;5035808;28;20244;-77
2022/05/29 07:24:26;;;;;;;7.00;2.30;;;;;;;22.69;72.28;64351.84;5035204;28;20218;-77
2022/05/29 07:26:54;;;;;;;6.63;2.13;;;;;;;22.86;73.71;64367.03;5034701;28;20198;-77
2022/05/29 07:29:22;;;;;;;5.20;1.95;;;;;;;22.93;72.29;64376.44;5036283;28;20221;-78
2022/05/29 07:31:51;;;;;;;5.90;2.50;;;;;;;22.97;71.18;64380.59;5030404;28;20202;-77
2022/05/29 07:34:18;;;;;;;11.30;2.33;;;;;;;22.94;70.80;64372.28;5036064;28;20263;-76
2022/05/29 07:36:45;;;;;;;3.50;1.83;;;;;;;22.93;73.16;64371.22;5036280;28;20209;-77
2022/05/29 07:39:12;;;;;;;5.45;2.13;;;;;;;23.11;71.82;64392.66;5035171;28;20204;-76
2022/05/29 07:44:25;;;;;;;8.05;2.60;;;;;;;23.26;74.26;64403.16;5034815;28;20278;-77
2022/05/29 07:46:52;;;;;;;7.03;2.42;;;;;;;23.37;71.34;64422.47;5032934;28;20256;-78
2022/05/29 07:49:19;;;;;;;6.65;2.33;;;;;;;23.35;70.61;64412.06;5034949;28;20526;-78
2022/05/29 07:51:46;;;;;;;7.38;2.70;;;;;;;23.38;70.58;64415.72;5030857;28;20210;-77
2022/05/29 07:54:12;;;;;;;6.20;2.00;;;;;;;23.32;73.17;64414.09;5036310;28;20198;-78
2022/05/29 07:56:39;;;;;;;5.30;2.45;;;;;;;23.44;73.60;64431.84;5034157;28;20210;-79
2022/05/29 07:59:06;;;;;;;3.13;2.28;;;;;;;23.55;68.46;64436.09;5035140;28;20193;-77
2022/05/29 08:01:34;;;;;;;5.40;2.72;;;;;;;23.45;69.66;64419.91;5035287;28;20503;-76
2022/05/29 08:04:03;;;;;;;5.13;2.15;;;;;;;23.32;70.49;64412.03;5034951;28;20241;-77
2022/05/29 08:06:31;;;;;;;4.07;2.08;;;;;;;23.29;70.47;64406.31;5036050;28;20203;-77
2022/05/29 08:08:58;;;;;;;4.70;2.30;;;;;;;23.41;70.97;64426.66;5035507;28;20209;-78
2022/05/29 08:11:25;;;;;;;4.60;3.00;;;;;;;23.49;71.00;64429.28;5042438;28;20201;-78
2022/05/29 08:13:53;;;;;;;6.18;2.47;;;;;;;23.61;70.90;64442.38;5057586;28;20197;-78
2022/05/29 08:16:20;;;;;;;6.60;2.40;;;;;;;23.75;73.02;64457.03;5049591;28;20267;-77
2022/05/29 08:18:49;;;;;;;3.38;2.00;;;;;;;23.85;71.10;64472.69;5042033;28;20220;-77
2022/05/29 08:21:16;;;;;;;6.72;2.63;;;;;;;23.98;70.50;64485.78;5047789;28;20221;-78
2022/05/29 08:30:37;;;;;;;4.78;2.60;;;;;;;24.16;71.26;64498.91;5057941;28;20201;-77
2022/05/29 08:31:58;;;;;;;9.95;3.30;;;;;;;24.16;70.39;64498.91;5038388;28;20235;-79
2022/05/29 08:34:27;;;;;;;6.32;2.42;;;;;;;24.30;69.38;64511.47;5036249;28;20229;-77
2022/05/29 08:36:55;;;;;;;5.57;2.33;;;;;;;24.42;69.32;64528.72;5041712;28;20200;-77
2022/05/29 08:39:22;;;;;;;6.95;2.63;;;;;;;24.42;69.25;64526.63;5043154;28;20237;-78
2022/05/29 08:41:52;;;;;;;9.18;2.90;;;;;;;24.55;69.40;64540.25;5044823;28;20197;-78
2022/05/29 08:44:25;;;;;;;3.00;2.53;;;;;;;24.69;67.43;64549.19;5040400;28;20217;-79
2022/05/29 08:46:56;;;;;;;3.92;3.00;;;;;;;24.70;67.95;64563.25;5043266;28;20201;-78
2022/05/29 08:49:27;;;;;;;9.02;2.72;;;;;;;24.86;64.95;64580.56;5045544;28;20224;-78
2022/05/29 08:52:19;;;;;;;12.35;2.75;;;;;;;24.84;64.69;64567.50;5039802;28;20189;-79
2022/05/29 08:54:51;;;;;;;19.15;3.03;;;;;;;25.01;63.03;64585.84;5041992;28;20241;-78
2022/05/29 08:57:38;;;;;;;3.97;2.22;;;;;;;25.05;59.07;64592.13;5053860;28;20217;-78
2022/05/29 09:00:08;;;;;;;8.15;2.80;;;;;;;24.98;60.03;64587.91;5052373;28;20213;-79
2022/05/29 09:02:49;;;;;;;7.72;2.15;;;;;;;25.01;58.82;64590.53;5038749;28;20472;-80
2022/05/29 09:05:25;;;;;;;5.95;2.45;;;;;;;25.08;58.76;64592.63;5036457;28;20224;-79
2022/05/29 09:07:53;;;;;;;5.97;2.38;;;;;;;25.34;59.65;64619.88;5049556;28;20375;-79
2022/05/29 09:10:32;;;;;;;6.15;1.73;;;;;;;25.37;56.16;64630.88;5037669;28;20240;-80
2022/05/29 09:13:03;;;;;;;12.10;2.90;;;;;;;25.18;59.28;64605.22;5030912;28;20190;-80
2022/05/29 09:15:37;;;;;;;6.95;3.22;;;;;;;25.13;58.59;64605.69;5047651;28;20293;-78
2022/05/29 09:18:11;;;;;;;4.40;3.15;;;;;;;25.29;61.00;64616.72;5030013;28;20229;-80
2022/05/29 09:20:45;;;;;;;8.25;2.78;;;;;;;25.47;58.83;64635.59;5049940;28;20236;-79
2022/05/29 09:23:25;;;;;;;13.57;3.38;;;;;;;25.46;56.35;64632.47;5050242;28;20209;-79
2022/05/29 09:25:54;;;;;;;6.72;2.88;;;;;;;25.23;59.72;64610.97;5037116;28;20577;-80
2022/05/29 09:28:27;;;;;;;8.38;2.78;;;;;;;25.04;59.45;64596.25;5047988;28;20209;-79
2022/05/29 09:31:03;;;;;;;8.27;2.30;;;;;;;25.08;60.74;64598.38;5051665;28;20217;-79
2022/05/29 09:33:30;;;;;;;12.15;2.60;;;;;;;25.07;63.36;64599.94;5052318;28;20204;-79
2022/05/29 09:36:03;;;;;;;5.90;2.20;;;;;;;25.19;62.07;64609.38;5052643;28;20214;-80
2022/05/29 09:38:34;;;;;;;8.27;3.10;;;;;;;25.35;62.14;64623.00;5051514;28;20251;-79
2022/05/29 09:41:07;;;;;;;5.10;2.40;;;;;;;25.30;63.71;64620.91;5050036;28;20221;-79
2022/05/29 09:43:34;;;;;;;10.18;2.55;;;;;;;25.43;64.15;64631.41;5051442;28;20514;-80
2022/05/29 09:46:19;;;;;;;11.88;2.63;;;;;;;25.57;60.70;64649.22;5051594;28;20223;-78
2022/05/29 09:51:44;;;;;;;12.15;3.10;;;;;;;25.16;61.85;64608.84;5049639;28;20204;-80
2022/05/29 09:54:24;;;;;;;11.45;3.22;;;;;;;25.07;62.33;64596.81;5042463;28;20495;-78
2022/05/29 09:56:51;;;;;;;3.38;2.92;;;;;;;25.27;64.96;64617.22;5029022;28;20193;-78
2022/05/29 09:59:20;;;;;;;10.63;2.88;;;;;;;25.33;64.06;64621.44;5034043;28;20267;-77
2022/05/29 10:02:01;;;;;;;5.30;3.38;;;;;;;25.24;61.85;64614.09;5045460;28;20213;-78
2022/05/29 10:04:37;;;;;;;3.92;2.58;;;;;;;25.11;64.24;64601.00;5047526;28;20233;-79
2022/05/29 10:07:15;;;;;;;4.80;2.67;;;;;;;25.36;61.67;64619.38;5034895;28;20253;-80
2022/05/29 10:10:00;;;;;;;6.18;2.67;;;;;;;25.36;64.99;64627.22;5048992;28;20225;-80
2022/05/29 10:12:39;;;;;;;9.45;3.47;;;;;;;25.28;61.98;64618.81;5032578;28;20219;-82
2022/05/29 10:15:13;;;;;;;5.95;2.75;;;;;;;25.54;63.53;64646.06;5032068;28;20233;-81
2022/05/29 10:17:40;;;;;;;6.30;2.53;;;;;;;25.68;62.01;64658.13;5047121;28;20230;-81
2022/05/29 10:20:30;;;;;;;16.67;3.50;;;;;;;25.77;63.71;64667.03;5045299;28;20218;-81
2022/05/29 10:23:00;;;;;;;3.72;2.95;;;;;;;25.78;58.80;64673.31;5030518;28;20244;-81
2022/05/29 10:25:31;;;;;;;6.32;3.45;;;;;;;25.84;61.50;64676.97;5031025;28;20218;-80
2022/05/29 10:28:03;;;;;;;4.82;2.70;;;;;;;26.01;64.15;64694.78;5050158;28;20251;-82
2022/05/29 10:30:35;;;;;;;7.25;3.20;;;;;;;26.04;61.17;64695.38;5052325;28;20526;-81
2022/05/29 10:33:06;;;;;;;6.47;2.80;;;;;;;26.16;62.95;64707.94;5051723;28;20200;-81
2022/05/29 10:35:36;;;;;;;6.43;2.95;;;;;;;26.03;60.24;64694.84;5048857;28;20232;-82
2022/05/29 10:41:36;;;;;;;6.30;3.92;;;;;;;26.39;61.49;64736.75;5048700;28;20208;-82
2022/05/29 10:44:09;;;;;;;10.93;4.75;;;;;;;26.01;58.17;64692.72;5057683;28;20204;-80
2022/05/29 10:46:43;;;;;;;9.82;3.30;;;;;;;26.24;60.43;64718.94;5041273;28;20215;-82
2022/05/29 10:49:26;;;;;;;13.18;3.80;;;;;;;26.44;61.68;64737.28;5047089;28;20474;-81
2022/05/29 10:52:13;;;;;;;11.27;4.55;;;;;;;26.14;59.90;64700.63;5058154;28;20205;-81
2022/05/29 10:55:07;;;;;;;5.78;3.88;;;;;;;25.80;59.95;64673.31;5053758;28;20221;-81
2022/05/29 10:58:00;;;;;;;7.35;3.67;;;;;;;25.57;62.80;64644.00;5066701;28;20201;-80
2022/05/29 11:00:39;;;;;;;5.32;3.22;;;;;;;25.75;62.08;64665.47;5068833;28;20420;-81
2022/05/29 11:03:34;;;;;;;10.52;4.18;;;;;;;25.56;60.27;64650.25;5058325;28;20193;-80
2022/05/29 11:06:21;;;;;;;6.95;3.65;;;;;;;25.33;63.62;64623.53;5058694;28;20217;-82
2022/05/29 11:09:02;;;;;;;6.07;3.45;;;;;;;25.16;63.07;64603.66;5069005;28;20245;-81
2022/05/29 11:11:46;;;;;;;8.90;3.50;;;;;;;25.28;63.09;64613.06;5050508;28;20197;-81
2022/05/29 11:14:42;;;;;;;10.65;3.35;;;;;;;25.03;64.16;64590.00;5052739;28;20197;-80
2022/05/29 11:17:19;;;;;;;9.95;3.80;;;;;;;25.19;65.67;64609.38;5054834;28;20221;-80
2022/05/29 11:20:14;;;;;;;7.70;3.35;;;;;;;25.10;66.55;64599.94;5056423;28;20216;-82
2022/05/29 11:22:50;;;;;;;9.88;3.38;;;;;;;25.02;66.12;64589.47;5035866;28;20191;-81
2022/05/29 11:25:32;;;;;;;5.15;3.25;;;;;;;24.97;67.16;64584.25;5051620;28;20296;-81
2022/05/29 11:28:19;;;;;;;9.05;3.58;;;;;;;25.21;68.42;64614.09;5055099;28;20221;-82
2022/05/29 11:31:03;;;;;;;7.05;4.03;;;;;;;25.33;68.85;64620.91;5053372;28;20231;-82
2022/05/29 11:33:45;;;;;;;6.32;4.05;;;;;;;25.76;64.00;64671.75;5056275;28;20192;-80
2022/05/29 11:36:33;;;;;;;5.78;3.10;;;;;;;26.04;63.71;64701.09;5054528;28;20287;-82
2022/05/29 11:39:23;;;;;;;6.28;4.03;;;;;;;26.35;64.45;64729.94;5052041;28;20212;-81
2022/05/29 11:41:56;;;;;;;6.00;3.50;;;;;;;26.45;60.78;64740.97;5052035;28;20204;-81
2022/05/29 11:44:28;;;;;;;4.90;3.17;;;;;;;26.40;61.21;64735.19;5051415;28;20217;-82
2022/05/29 11:52:52;;;;;;;3.78;3.15;;;;;;;27.22;59.04;64818.59;5052689;28;20360;-81
2022/05/29 11:55:22;;;;;;;4.75;3.05;;;;;;;27.31;57.22;64828.06;5050801;28;20217;-80
2022/05/29 11:57:57;;;;;;;5.55;3.85;;;;;;;27.54;56.61;64856.91;5057052;28;20196;-82
2022/05/29 12:00:33;;;;;;;7.55;4.15;;;;;;;27.96;58.47;64901.53;5072798;28;20223;-82
2022/05/29 12:03:13;;;;;;;11.80;4.32;;;;;;;27.73;53.57;64877.38;5062069;28;20203;-81
2022/05/29 12:05:45;;;;;;;12.25;3.72;;;;;;;27.47;55.37;64844.84;5050537;28;20379;-82
2022/05/29 12:08:18;;;;;;;12.35;4.47;;;;;;;27.39;55.83;64830.69;5047252;28;20251;-82
2022/05/29 12:11:09;;;;;;;7.13;4.05;;;;;;;27.87;56.33;64892.03;5038807;28;20288;-82
2022/05/29 12:13:44;;;;;;;8.07;4.22;;;;;;;27.72;55.34;64873.16;5071990;28;20201;-82
2022/05/29 12:16:13;;;;;;;10.45;4.25;;;;;;;27.71;56.94;64872.66;5053612;28;20221;-83
2022/05/29 12:18:48;;;;;;;7.22;4.10;;;;;;;28.21;57.58;64922.00;5050080;28;20225;-82
2022/05/29 12:21:18;;;;;;;8.00;4.88;;;;;;;28.31;56.85;64937.75;5051285;28;20232;-82
2022/05/29 12:23:48;;;;;;;8.98;4.82;;;;;;;28.78;52.51;64983.97;5066923;28;20197;-82